createdAt,value
2023-05-05T00:01:50.181Z,92.53
2023-05-05T00:04:33.967Z,92.39
2023-05-05T00:07:17.914Z,91.52
2023-05-05T00:10:01.965Z,91.92
2023-05-05T00:12:47.904Z,91.15
2023-05-05T00:15:31.863Z,91.30
2023-05-05T00:18:18.412Z,90.69
2023-05-05T00:21:02.436Z,92.00
2023-05-05T00:23:46.454Z,91.64
2023-05-05T00:26:30.427Z,91.33
2023-05-05T00:29:14.296Z,92.53
2023-05-05T00:31:58.061Z,93.16
2023-05-05T00:34:43.234Z,91.01
2023-05-05T00:37:27.185Z,90.31
2023-05-05T00:40:12.126Z,90.37
2023-05-05T00:42:56.310Z,92.42
2023-05-05T00:45:42.943Z,92.32
2023-05-05T00:48:26.919Z,92.62
2023-05-05T00:51:13.010Z,92.49
2023-05-05T00:53:57.201Z,92.53
2023-05-05T00:56:41.071Z,93.41
2023-05-05T00:59:25.112Z,92.60
2023-05-05T01:02:08.890Z,91.76
2023-05-05T01:04:53.035Z,91.86
2023-05-05T01:07:49.676Z,91.90
2023-05-05T01:10:39.756Z,92.87
2023-05-05T01:13:33.901Z,91.41
2023-05-05T01:16:22.250Z,91.21
2023-05-05T01:19:25.906Z,90.48
2023-05-05T01:22:13.210Z,89.35
2023-05-05T01:25:21.548Z,88.69
2023-05-05T01:28:17.931Z,87.96
2023-05-05T01:31:19.270Z,88.72
2023-05-05T01:34:08.813Z,87.29
2023-05-05T01:36:59.892Z,88.67
2023-05-05T01:39:46.233Z,87.77
2023-05-05T01:42:32.227Z,87.46
2023-05-05T01:45:19.289Z,87.87
2023-05-05T01:48:06.669Z,87.32
2023-05-05T01:50:54.629Z,86.88
2023-05-05T01:53:41.643Z,86.85
2023-05-05T01:56:27.771Z,86.82
2023-05-05T01:59:12.815Z,86.14
2023-05-05T02:01:58.494Z,86.00
2023-05-05T02:04:45.140Z,86.18
2023-05-05T02:07:32.806Z,88.73
2023-05-05T02:10:17.193Z,89.09
2023-05-05T02:13:03.009Z,89.27
2023-05-05T02:15:48.177Z,90.70
2023-05-05T02:18:35.910Z,88.83
2023-05-05T02:21:20.749Z,89.69
2023-05-05T02:24:07.125Z,89.00
2023-05-05T02:26:53.322Z,90.45
2023-05-05T02:29:40.675Z,88.38
2023-05-05T02:32:33.337Z,88.96
2023-05-05T02:35:22.944Z,89.07
2023-05-05T02:38:10.157Z,89.04
2023-05-05T02:41:00.904Z,89.98
2023-05-05T02:43:47.574Z,89.59
2023-05-05T02:46:32.788Z,89.25
2023-05-05T02:49:16.922Z,89.03
2023-05-05T02:52:02.357Z,88.92
2023-05-05T02:54:51.353Z,89.79
2023-05-05T02:57:42.239Z,90.00
2023-05-05T03:00:35.890Z,89.28
2023-05-05T03:03:27.565Z,90.14
2023-05-05T03:06:16.559Z,91.42
2023-05-05T03:09:08.756Z,89.98
2023-05-05T03:12:00.969Z,90.13
2023-05-05T03:14:48.726Z,88.54
2023-05-05T03:17:36.901Z,91.48
2023-05-05T03:20:23.248Z,91.03
2023-05-05T03:23:08.834Z,90.90
2023-05-05T03:25:53.835Z,89.75
2023-05-05T03:28:45.789Z,89.15
2023-05-05T03:31:37.434Z,93.41
2023-05-05T03:34:21.494Z,93.05
2023-05-05T03:37:06.109Z,90.10
2023-05-05T03:39:50.405Z,89.32
2023-05-05T03:42:34.877Z,88.79
2023-05-05T03:45:19.013Z,88.63
2023-05-05T03:48:04.364Z,90.33
2023-05-05T03:50:49.529Z,88.17
2023-05-05T03:53:35.525Z,88.43
2023-05-05T03:56:22.809Z,86.49
2023-05-05T03:59:08.880Z,86.15
2023-05-05T04:01:52.789Z,85.21
2023-05-05T04:04:37.909Z,85.94
2023-05-05T04:07:22.924Z,84.13
2023-05-05T04:10:08.640Z,84.35
2023-05-05T04:12:52.717Z,83.10
2023-05-05T04:15:36.648Z,83.01
2023-05-05T04:18:20.530Z,81.73
2023-05-05T04:21:06.154Z,82.67
2023-05-05T04:23:50.391Z,80.89
2023-05-05T04:26:34.406Z,81.51
2023-05-05T04:29:18.841Z,83.09
2023-05-05T04:32:02.732Z,83.15
2023-05-05T04:34:47.099Z,82.15
2023-05-05T04:37:32.692Z,79.74
2023-05-05T04:40:16.901Z,81.30
2023-05-05T04:43:00.769Z,81.79
2023-05-05T04:45:53.948Z,81.25
2023-05-05T04:48:39.835Z,80.24
2023-05-05T04:51:24.534Z,79.69
2023-05-05T04:54:09.834Z,78.74
2023-05-05T04:56:54.065Z,80.11
2023-05-05T04:59:37.849Z,79.74
2023-05-05T05:02:21.690Z,79.36
2023-05-05T05:05:07.705Z,79.04
2023-05-05T05:07:51.469Z,78.32
2023-05-05T05:10:36.643Z,77.51
2023-05-05T05:13:20.632Z,77.73
2023-05-05T05:16:04.663Z,76.66
2023-05-05T05:18:48.653Z,78.38
2023-05-05T05:21:32.836Z,77.48
2023-05-05T05:24:17.013Z,76.50
2023-05-05T05:27:02.874Z,77.16
2023-05-05T05:29:46.698Z,77.27
2023-05-05T05:32:30.785Z,76.40
2023-05-05T05:35:14.807Z,75.27
2023-05-05T05:37:58.808Z,76.52
2023-05-05T05:40:42.544Z,76.93
2023-05-05T05:43:27.791Z,75.05
2023-05-05T05:46:12.635Z,74.77
2023-05-05T05:48:57.837Z,74.05
2023-05-05T05:51:42.084Z,73.98
2023-05-05T05:54:25.834Z,72.99
2023-05-05T05:57:09.998Z,70.80
2023-05-05T05:59:55.457Z,69.88
2023-05-05T06:02:40.450Z,69.21
2023-05-05T06:05:28.099Z,70.64
2023-05-05T06:08:11.788Z,71.43
2023-05-05T06:11:01.910Z,72.61
2023-05-05T06:13:46.575Z,72.59
2023-05-05T06:16:31.837Z,71.15
2023-05-05T06:19:19.755Z,70.70
2023-05-05T06:22:03.558Z,69.48
2023-05-05T06:24:47.512Z,67.14
2023-05-05T06:27:31.990Z,67.33
2023-05-05T06:30:15.957Z,68.31
2023-05-05T06:33:02.486Z,68.01
2023-05-05T06:35:47.858Z,69.35
2023-05-05T06:38:31.740Z,68.38
2023-05-05T06:41:15.519Z,67.84
2023-05-05T06:43:59.368Z,65.85
2023-05-05T06:46:43.828Z,66.04
2023-05-05T06:49:29.147Z,65.45
2023-05-05T06:52:13.011Z,64.04
2023-05-05T06:54:56.969Z,63.12
2023-05-05T06:57:40.961Z,66.76
2023-05-05T07:00:25.266Z,65.35
2023-05-05T07:03:09.300Z,61.85
2023-05-05T07:05:55.073Z,62.36
2023-05-05T07:08:38.850Z,59.83
2023-05-05T07:11:22.785Z,58.11
2023-05-05T07:14:06.683Z,55.39
2023-05-05T07:16:50.482Z,57.50
2023-05-05T07:19:34.210Z,60.25
2023-05-05T07:22:19.410Z,59.24
2023-05-05T07:25:03.927Z,57.53
2023-05-05T07:27:47.784Z,56.79
2023-05-05T07:30:31.682Z,58.62
2023-05-05T07:33:15.916Z,57.95
2023-05-05T07:35:59.794Z,56.78
2023-05-05T07:38:44.980Z,56.27
2023-05-05T07:41:28.705Z,59.16
2023-05-05T07:44:12.695Z,59.54
2023-05-05T07:46:56.454Z,58.90
2023-05-05T07:49:40.299Z,58.08
2023-05-05T07:52:37.004Z,58.33
2023-05-05T07:55:29.613Z,56.78
2023-05-05T07:58:13.678Z,57.39
2023-05-05T08:00:57.546Z,56.64
2023-05-05T08:03:41.518Z,57.11
2023-05-05T08:06:25.494Z,55.63
2023-05-05T08:09:09.606Z,54.37
2023-05-05T08:11:54.754Z,55.07
2023-05-05T08:14:38.539Z,51.70
2023-05-05T08:17:22.414Z,51.59
2023-05-05T08:20:07.143Z,53.43
2023-05-05T08:22:53.451Z,55.49
2023-05-05T08:25:37.390Z,56.57
2023-05-05T08:28:23.083Z,57.99
2023-05-05T08:31:07.308Z,59.14
2023-05-05T08:33:51.169Z,57.01
2023-05-05T08:36:35.106Z,56.88
2023-05-05T08:39:19.019Z,57.00
2023-05-05T08:42:03.110Z,55.51
2023-05-05T08:44:48.455Z,56.73
2023-05-05T08:47:32.518Z,56.55
2023-05-05T08:50:20.425Z,56.13
2023-05-05T08:53:11.992Z,55.55
2023-05-05T08:55:57.636Z,55.18
2023-05-05T08:58:43.039Z,55.16
2023-05-05T09:01:29.010Z,53.48
2023-05-05T09:04:12.804Z,53.80
2023-05-05T09:06:59.234Z,53.71
2023-05-05T09:09:43.624Z,56.23
2023-05-05T09:12:31.766Z,53.71
2023-05-05T09:15:16.458Z,53.35
2023-05-05T09:18:02.617Z,56.20
2023-05-05T09:20:46.464Z,49.49
2023-05-05T09:23:30.328Z,50.23
2023-05-05T09:26:14.723Z,50.81
2023-05-05T09:28:58.722Z,51.24
2023-05-05T09:31:42.607Z,49.65
2023-05-05T09:34:28.499Z,50.26
2023-05-05T09:37:12.337Z,51.79
2023-05-05T09:39:56.764Z,52.36
2023-05-05T09:42:41.803Z,49.37
2023-05-05T09:45:27.878Z,49.83
2023-05-05T09:48:25.817Z,48.87
2023-05-05T09:51:11.563Z,46.97
2023-05-05T09:53:55.596Z,44.08
2023-05-05T09:56:40.541Z,44.75
2023-05-05T09:59:24.748Z,46.61
2023-05-05T10:02:13.236Z,47.99
2023-05-05T10:05:06.435Z,46.37
2023-05-05T10:07:52.177Z,46.87
2023-05-05T10:10:37.670Z,45.55
2023-05-05T10:13:23.132Z,44.97
2023-05-05T10:16:10.443Z,46.14
2023-05-05T10:18:54.523Z,46.37
2023-05-05T10:21:42.174Z,48.42
2023-05-05T10:24:38.660Z,47.61
2023-05-05T10:27:25.448Z,47.80
2023-05-05T10:30:14.385Z,47.97
2023-05-05T10:33:18.578Z,47.75
2023-05-05T10:36:09.212Z,48.41
2023-05-05T10:38:57.633Z,48.44
2023-05-05T10:41:43.227Z,46.65
2023-05-05T10:44:28.606Z,46.97
2023-05-05T10:47:13.342Z,47.04
2023-05-05T10:50:03.947Z,48.03
2023-05-05T10:52:57.906Z,47.23
2023-05-05T10:55:47.647Z,47.45
2023-05-05T10:58:51.020Z,47.79
2023-05-05T11:01:40.417Z,46.33
2023-05-05T11:04:25.346Z,46.03
2023-05-05T11:07:26.118Z,46.48
2023-05-05T11:10:11.826Z,46.15
2023-05-05T11:13:21.455Z,45.43
2023-05-05T11:16:27.772Z,44.56
2023-05-05T11:19:48.379Z,47.46
2023-05-05T11:22:32.432Z,46.09
2023-05-05T11:25:51.410Z,45.57
2023-05-05T11:28:35.214Z,45.11
2023-05-05T11:31:21.171Z,46.53
2023-05-05T11:34:29.319Z,45.03
2023-05-05T11:37:13.575Z,45.05
2023-05-05T11:40:05.590Z,45.66
2023-05-05T11:42:49.691Z,45.43
2023-05-05T11:45:33.735Z,45.81
2023-05-05T11:48:28.498Z,46.26
2023-05-05T11:51:13.442Z,45.48
2023-05-05T11:53:59.061Z,44.38
2023-05-05T11:56:51.559Z,42.71
2023-05-05T11:59:37.478Z,43.13
2023-05-05T12:02:22.863Z,44.61
2023-05-05T12:05:09.004Z,40.76
2023-05-05T12:07:59.658Z,42.87
2023-05-05T12:10:43.680Z,42.39
2023-05-05T12:13:28.259Z,42.64
2023-05-05T12:16:13.017Z,42.67
2023-05-05T12:19:05.856Z,41.27
2023-05-05T12:21:54.289Z,39.29
2023-05-05T12:24:38.212Z,40.53
2023-05-05T12:27:22.037Z,41.80
2023-05-05T12:30:17.470Z,43.49
2023-05-05T12:33:05.597Z,42.14
2023-05-05T12:35:49.838Z,42.21
2023-05-05T12:38:35.026Z,41.54
2023-05-05T12:41:21.378Z,40.70
2023-05-05T12:44:05.567Z,41.11
2023-05-05T12:46:53.111Z,41.14
2023-05-05T12:49:47.528Z,41.06
2023-05-05T12:52:43.580Z,42.25
2023-05-05T12:55:39.933Z,42.57
2023-05-05T12:58:24.025Z,42.09
2023-05-05T13:01:11.607Z,42.63
2023-05-05T13:04:10.787Z,43.25
2023-05-05T13:07:10.968Z,41.43
2023-05-05T13:10:09.085Z,43.33
2023-05-05T13:12:56.829Z,41.76
2023-05-05T13:15:41.168Z,42.53
2023-05-05T13:18:25.289Z,40.89
2023-05-05T13:21:09.113Z,40.07
2023-05-05T13:23:53.421Z,39.82
2023-05-05T13:26:38.002Z,40.62
2023-05-05T13:29:26.117Z,40.96
2023-05-05T13:32:11.379Z,39.19
2023-05-05T13:34:55.337Z,38.80
2023-05-05T13:37:39.208Z,39.97
2023-05-05T13:40:25.644Z,39.29
2023-05-05T13:43:09.871Z,41.36
2023-05-05T13:46:02.872Z,42.01
2023-05-05T13:48:56.597Z,41.87
2023-05-05T13:51:41.052Z,41.87
2023-05-05T13:54:25.235Z,41.18
2023-05-05T13:57:11.335Z,42.01
2023-05-05T13:59:55.351Z,42.55
2023-05-05T14:05:24.999Z,43.76
2023-05-05T14:08:09.064Z,43.78
2023-05-05T14:10:53.111Z,43.10
2023-05-05T14:13:37.341Z,41.16
2023-05-05T14:16:21.491Z,42.02
2023-05-05T14:19:06.996Z,42.76
2023-05-05T14:21:51.197Z,43.92
2023-05-05T14:24:35.219Z,42.66
2023-05-05T14:27:19.371Z,42.91
2023-05-05T14:30:03.538Z,41.07
2023-05-05T14:32:49.592Z,41.00
2023-05-05T14:35:35.074Z,40.93
2023-05-05T14:38:19.176Z,40.40
2023-05-05T14:41:03.288Z,41.24
2023-05-05T14:43:47.335Z,42.73
2023-05-05T14:46:31.919Z,42.50
2023-05-05T14:49:16.216Z,42.97
2023-05-05T14:52:01.731Z,41.88
2023-05-05T14:54:46.831Z,41.56
2023-05-05T14:57:32.303Z,40.36
2023-05-05T15:00:17.123Z,40.51
2023-05-05T15:03:01.244Z,39.61
2023-05-05T15:05:45.603Z,39.51
2023-05-05T15:08:31.097Z,40.16
2023-05-05T15:11:15.155Z,40.20
2023-05-05T15:13:59.181Z,39.00
2023-05-05T15:16:43.345Z,39.58
2023-05-05T15:19:27.424Z,40.07
2023-05-05T15:22:11.456Z,40.01
2023-05-05T15:24:56.846Z,40.57
2023-05-05T15:27:40.996Z,40.34
2023-05-05T15:30:25.141Z,40.48
2023-05-05T15:33:09.203Z,40.02
2023-05-05T15:35:53.162Z,40.16
2023-05-05T15:38:42.971Z,41.48
2023-05-05T15:41:29.650Z,42.01
2023-05-05T15:44:13.728Z,42.19
2023-05-05T15:46:57.990Z,41.81
2023-05-05T15:49:42.011Z,42.39
2023-05-05T15:52:25.885Z,43.10
2023-05-05T15:55:11.386Z,43.39
2023-05-05T15:57:56.994Z,43.19
2023-05-05T16:00:42.022Z,44.48
2023-05-05T16:03:26.307Z,44.97
2023-05-05T16:06:13.008Z,44.98
2023-05-05T16:08:58.857Z,45.36
2023-05-05T16:11:42.981Z,45.88
2023-05-05T16:14:29.073Z,45.97
2023-05-05T16:17:13.211Z,45.17
2023-05-05T16:19:57.278Z,45.78
2023-05-05T16:22:41.362Z,45.96
2023-05-05T16:25:25.539Z,46.08
2023-05-05T16:28:09.854Z,46.89
2023-05-05T16:30:55.242Z,46.50
2023-05-05T16:33:41.239Z,46.48
2023-05-05T16:36:25.332Z,46.95
2023-05-05T16:39:12.326Z,47.23
2023-05-05T16:41:56.535Z,48.18
2023-05-05T16:44:42.847Z,48.50
2023-05-05T16:47:28.522Z,48.57
2023-05-05T16:50:15.880Z,48.74
2023-05-05T16:53:03.023Z,48.91
2023-05-05T16:55:48.797Z,50.17
2023-05-05T16:58:35.972Z,49.36
2023-05-05T17:01:22.188Z,50.21
2023-05-05T17:04:11.245Z,51.48
2023-05-05T17:06:57.626Z,53.10
2023-05-05T17:09:41.668Z,53.47
2023-05-05T17:12:25.992Z,53.27
2023-05-05T17:15:12.287Z,53.32
2023-05-05T17:17:57.641Z,54.42
2023-05-05T17:20:43.307Z,55.44
2023-05-05T17:23:30.113Z,56.45
2023-05-05T17:26:24.532Z,56.15
2023-05-05T17:29:09.666Z,54.98
2023-05-05T17:31:57.129Z,54.14
2023-05-05T17:34:41.429Z,53.61
2023-05-05T17:37:28.864Z,53.38
2023-05-05T17:40:13.384Z,53.79
2023-05-05T17:42:57.517Z,54.41
2023-05-05T17:45:44.637Z,54.70
2023-05-05T17:48:31.863Z,55.30
2023-05-05T17:51:18.003Z,56.55
2023-05-05T17:54:06.223Z,56.57
2023-05-05T17:56:50.247Z,56.98
2023-05-05T17:59:34.279Z,56.10
2023-05-05T18:02:19.391Z,57.18
2023-05-05T18:05:03.669Z,56.91
2023-05-05T18:07:50.033Z,57.20
2023-05-05T18:10:35.558Z,57.05
2023-05-05T18:13:20.233Z,57.81
2023-05-05T18:16:04.564Z,58.48
2023-05-05T18:18:48.780Z,58.68
2023-05-05T18:24:33.306Z,59.09
2023-05-05T18:27:21.273Z,58.96
2023-05-05T18:30:06.471Z,58.39
2023-05-05T18:32:54.442Z,58.52
2023-05-05T18:35:43.325Z,58.33
2023-05-05T18:38:29.365Z,57.97
2023-05-05T18:41:15.098Z,57.92
2023-05-05T18:46:58.420Z,57.39
2023-05-05T18:49:45.314Z,56.95
2023-05-05T18:52:32.295Z,57.26
2023-05-05T18:55:16.646Z,57.19
2023-05-05T18:58:03.607Z,57.38
2023-05-05T19:00:49.211Z,56.81
2023-05-05T19:03:48.955Z,56.80
2023-05-05T19:06:33.122Z,57.14
2023-05-05T19:09:19.967Z,57.36
2023-05-05T19:12:04.312Z,57.65
2023-05-05T19:14:50.379Z,57.94
2023-05-05T19:17:38.736Z,58.39
2023-05-05T19:20:23.328Z,58.44
2023-05-05T19:23:07.445Z,58.33
2023-05-05T19:25:55.994Z,59.09
2023-05-05T19:28:42.788Z,58.63
2023-05-05T19:31:30.915Z,59.27
2023-05-05T19:34:16.559Z,59.01
2023-05-05T19:37:02.438Z,59.15
2023-05-05T19:39:46.532Z,59.03
2023-05-05T19:42:35.617Z,59.37
2023-05-05T19:45:22.801Z,59.11
2023-05-05T19:48:09.596Z,60.07
2023-05-05T19:51:00.457Z,59.39
2023-05-05T19:53:50.736Z,60.10
2023-05-05T19:56:39.566Z,60.07
2023-05-05T19:59:31.248Z,60.88
2023-05-05T20:02:17.278Z,60.56
2023-05-05T20:05:01.399Z,60.87
2023-05-05T20:07:51.503Z,61.74
2023-05-05T20:10:38.944Z,61.97
2023-05-05T20:13:23.327Z,62.04
2023-05-05T20:16:08.507Z,62.76
2023-05-05T20:18:54.860Z,63.51
2023-05-05T20:21:39.008Z,63.65
2023-05-05T20:24:28.712Z,63.71
2023-05-05T20:27:14.573Z,63.50
2023-05-05T20:30:05.263Z,62.79
2023-05-05T20:32:51.977Z,62.18
2023-05-05T20:35:36.217Z,62.44
2023-05-05T20:38:20.311Z,61.44
2023-05-05T20:41:06.133Z,61.41
2023-05-05T20:43:50.354Z,61.19
2023-05-05T20:46:39.862Z,60.81
2023-05-05T20:49:26.510Z,60.98
2023-05-05T20:52:10.533Z,61.69
2023-05-05T20:54:54.665Z,62.04
2023-05-05T20:57:40.358Z,61.40
2023-05-05T21:00:24.804Z,61.11
2023-05-05T21:03:09.139Z,62.25
2023-05-05T21:05:55.067Z,61.50
2023-05-05T21:08:42.333Z,61.13
2023-05-05T21:11:26.518Z,62.43
2023-05-05T21:14:13.094Z,62.85
2023-05-05T21:16:57.555Z,62.60
2023-05-05T21:19:41.799Z,61.65
2023-05-05T21:22:28.915Z,61.95
2023-05-05T21:25:15.819Z,61.95
2023-05-05T21:28:03.697Z,61.98
2023-05-05T21:31:10.261Z,61.21
2023-05-05T21:33:56.668Z,60.54
2023-05-05T21:36:43.085Z,61.56
2023-05-05T21:39:27.223Z,62.47
2023-05-05T21:42:11.212Z,61.99
2023-05-05T21:44:56.796Z,62.97
2023-05-05T21:47:42.408Z,60.55
2023-05-05T21:50:27.674Z,60.62
2023-05-05T21:53:13.510Z,60.88
2023-05-05T21:55:57.624Z,60.73
2023-05-05T21:58:41.888Z,60.63
2023-05-05T22:01:28.854Z,60.25
2023-05-05T22:04:14.310Z,59.31
2023-05-05T22:07:06.945Z,59.42
2023-05-05T22:09:52.090Z,59.46
2023-05-05T22:12:36.214Z,59.19
2023-05-05T22:15:20.558Z,59.90
2023-05-05T22:18:04.807Z,59.66
2023-05-05T22:20:50.222Z,59.70
2023-05-05T22:23:34.266Z,59.88
2023-05-05T22:26:18.214Z,59.24
2023-05-05T22:29:02.321Z,59.54
2023-05-05T22:31:46.546Z,59.66
2023-05-05T22:34:30.538Z,59.71
2023-05-05T22:37:16.475Z,59.90
2023-05-05T22:40:00.589Z,59.61
2023-05-05T22:42:44.737Z,59.29
2023-05-05T22:45:30.329Z,59.40
2023-05-05T22:48:14.468Z,59.54
2023-05-05T22:50:58.550Z,60.30
2023-05-05T22:53:43.928Z,61.06
2023-05-05T22:56:27.667Z,62.06
2023-05-05T22:59:11.720Z,62.54
2023-05-05T23:01:55.915Z,63.18
2023-05-05T23:04:39.997Z,63.32
2023-05-05T23:07:24.049Z,63.32
2023-05-05T23:10:10.251Z,63.71
2023-05-05T23:12:54.219Z,63.72
2023-05-05T23:15:38.466Z,63.29
2023-05-05T23:18:22.434Z,63.14
2023-05-05T23:21:06.372Z,63.12
2023-05-05T23:23:50.184Z,62.68
2023-05-05T23:26:35.650Z,62.93
2023-05-05T23:29:19.598Z,62.87
2023-05-05T23:32:03.429Z,63.54
2023-05-05T23:34:47.381Z,62.42
2023-05-05T23:37:31.244Z,63.52
2023-05-05T23:40:15.041Z,63.38
2023-05-05T23:43:00.319Z,63.88
2023-05-05T23:45:44.064Z,64.75
2023-05-05T23:48:27.850Z,64.73
2023-05-05T23:51:11.938Z,65.42
2023-05-05T23:53:57.599Z,65.30
2023-05-05T23:56:42.680Z,65.00
2023-05-05T23:59:27.800Z,64.99
